createdAt,value
2019-04-04T00:00:08.487Z,0.80
2019-04-04T00:02:34.820Z,0.50
2019-04-04T00:05:01.153Z,0.70
2019-04-04T00:07:29.080Z,0.60
2019-04-04T00:09:55.458Z,0.80
2019-04-04T00:12:21.776Z,0.70
2019-04-04T00:14:48.104Z,0.60
2019-04-04T00:17:14.555Z,0.50
2019-04-04T00:19:40.893Z,0.60
2019-04-04T00:22:07.312Z,0.60
2019-04-04T00:24:33.391Z,0.90
2019-04-04T00:26:59.756Z,0.73
2019-04-04T00:29:26.083Z,0.50
2019-04-04T00:31:52.411Z,0.40
2019-04-04T00:34:18.456Z,0.97
2019-04-04T00:36:44.535Z,0.50
2019-04-04T00:39:10.620Z,0.70
2019-04-04T00:41:36.937Z,0.50
2019-04-04T00:44:03.657Z,0.60
2019-04-04T00:46:30.966Z,0.63
2019-04-04T00:48:57.656Z,0.50
2019-04-04T00:51:24.080Z,0.77
2019-04-04T00:53:50.223Z,0.40
2019-04-04T00:56:18.075Z,0.70
2019-04-04T00:58:44.605Z,1.23
2019-04-04T01:01:10.948Z,0.60
2019-04-04T01:03:37.028Z,0.60
2019-04-04T01:06:03.738Z,0.77
2019-04-04T01:08:30.914Z,0.53
2019-04-04T01:10:57.044Z,0.60
2019-04-04T01:13:24.536Z,0.50
2019-04-04T01:15:51.092Z,0.60
2019-04-04T01:18:17.396Z,0.40
2019-04-04T01:20:43.839Z,0.60
2019-04-04T01:23:09.888Z,0.50
2019-04-04T01:25:37.013Z,0.50
2019-04-04T01:28:04.158Z,0.50
2019-04-04T01:30:30.202Z,0.50
2019-04-04T01:32:56.282Z,0.63
2019-04-04T01:35:23.224Z,0.97
2019-04-04T01:37:50.147Z,0.50
2019-04-04T01:40:16.513Z,0.50
2019-04-04T01:42:42.595Z,0.50
2019-04-04T01:45:12.731Z,0.50
2019-04-04T01:47:38.419Z,0.50
2019-04-04T01:50:05.242Z,0.40
2019-04-04T01:52:31.290Z,0.50
2019-04-04T01:54:57.368Z,0.50
2019-04-04T01:57:23.421Z,0.60
2019-04-04T01:59:49.472Z,1.63
2019-04-04T02:02:17.818Z,0.70
2019-04-04T02:04:43.808Z,0.57
2019-04-04T02:07:10.138Z,0.50
2019-04-04T02:09:36.212Z,0.50
2019-04-04T02:12:02.594Z,0.57
2019-04-04T02:14:28.644Z,0.50
2019-04-04T02:16:54.724Z,0.73
2019-04-04T02:19:20.779Z,1.03
2019-04-04T02:21:47.092Z,0.80
2019-04-04T02:24:13.828Z,0.47
2019-04-04T02:26:41.285Z,0.80
2019-04-04T02:29:09.025Z,0.60
2019-04-04T02:31:37.508Z,0.67
2019-04-04T02:34:06.207Z,0.60
2019-04-04T02:36:31.724Z,0.60
2019-04-04T02:39:03.588Z,0.50
2019-04-04T02:41:29.911Z,0.43
2019-04-04T02:43:59.431Z,0.67
2019-04-04T02:46:25.339Z,0.60
2019-04-04T02:48:53.582Z,0.60
2019-04-04T02:51:19.708Z,0.50
2019-04-04T02:53:46.083Z,0.63
2019-04-04T02:56:12.232Z,0.70
2019-04-04T02:58:38.312Z,0.70
2019-04-04T03:01:04.778Z,0.70
2019-04-04T03:03:31.018Z,0.50
2019-04-04T03:05:57.060Z,0.60
2019-04-04T03:08:23.142Z,0.73
2019-04-04T03:10:49.546Z,0.60
2019-04-04T03:13:15.780Z,0.60
2019-04-04T03:15:47.136Z,0.60
2019-04-04T03:18:09.960Z,0.60
2019-04-04T03:20:36.088Z,0.70
2019-04-04T03:23:02.123Z,0.60
2019-04-04T03:25:28.221Z,0.70
2019-04-04T03:27:55.487Z,0.63
2019-04-04T03:30:22.253Z,0.77
2019-04-04T03:32:53.825Z,0.70
2019-04-04T03:35:16.251Z,0.87
2019-04-04T03:37:45.970Z,0.67
2019-04-04T03:40:10.385Z,0.77
2019-04-04T03:42:37.173Z,0.80
2019-04-04T03:45:05.449Z,0.80
2019-04-04T03:47:31.504Z,0.87
2019-04-04T03:49:58.092Z,0.70
2019-04-04T03:52:24.995Z,0.80
2019-04-04T03:54:55.256Z,0.73
2019-04-04T03:57:18.993Z,0.80
2019-04-04T03:59:45.079Z,0.73
2019-04-04T04:02:11.391Z,0.90
2019-04-04T04:04:37.439Z,0.80
2019-04-04T04:07:03.600Z,0.77
2019-04-04T04:09:29.952Z,0.80
2019-04-04T04:11:56.070Z,1.20
2019-04-04T04:14:22.787Z,0.60
2019-04-04T04:16:49.221Z,0.80
2019-04-04T04:19:15.630Z,0.77
2019-04-04T04:21:43.309Z,0.60
2019-04-04T04:24:10.018Z,0.80
2019-04-04T04:26:40.781Z,0.70
2019-04-04T04:29:04.047Z,0.60
2019-04-04T04:31:30.175Z,1.07
2019-04-04T04:34:00.669Z,0.67
2019-04-04T04:36:24.737Z,0.87
2019-04-04T04:38:50.830Z,0.80
2019-04-04T04:41:19.802Z,0.80
2019-04-04T04:43:45.560Z,0.80
2019-04-04T04:46:11.603Z,0.80
2019-04-04T04:48:37.684Z,0.70
2019-04-04T04:51:03.784Z,0.80
2019-04-04T04:53:30.176Z,0.80
2019-04-04T04:55:59.530Z,0.70
2019-04-04T04:58:24.245Z,0.90
2019-04-04T05:00:50.365Z,0.80
2019-04-04T05:03:16.703Z,0.90
2019-04-04T05:05:43.124Z,1.00
2019-04-04T05:08:10.583Z,0.90
2019-04-04T05:10:37.332Z,1.03
2019-04-04T05:13:03.393Z,1.00
2019-04-04T05:15:30.447Z,1.00
2019-04-04T05:17:57.409Z,1.07
2019-04-04T05:20:25.569Z,1.60
2019-04-04T05:22:51.819Z,3.23
2019-04-04T05:25:18.245Z,1.17
2019-04-04T05:27:44.623Z,1.67
2019-04-04T05:30:15.941Z,2.10
2019-04-04T05:32:40.856Z,2.30
2019-04-04T05:35:08.503Z,1.67
2019-04-04T05:37:38.002Z,2.10
2019-04-04T05:40:04.480Z,1.47
2019-04-04T05:42:32.829Z,2.30
2019-04-04T05:44:58.619Z,1.97
2019-04-04T05:47:24.767Z,2.47
2019-04-04T05:49:51.223Z,1.77
2019-04-04T05:52:17.794Z,2.43
2019-04-04T05:54:43.932Z,1.90
2019-04-04T05:57:10.065Z,3.37
2019-04-04T05:59:36.152Z,2.17
2019-04-04T06:02:02.359Z,2.53
2019-04-04T06:04:28.800Z,2.43
2019-04-04T06:06:55.746Z,2.80
2019-04-04T06:09:23.171Z,2.67
2019-04-04T06:11:52.748Z,2.17
2019-04-04T06:14:20.575Z,2.53
2019-04-04T06:16:46.472Z,2.83
2019-04-04T06:19:14.824Z,2.13
2019-04-04T06:21:40.532Z,2.70
2019-04-04T06:24:06.588Z,2.83
2019-04-04T06:26:32.912Z,4.70
2019-04-04T06:28:59.250Z,2.90
2019-04-04T06:31:26.884Z,2.37
2019-04-04T06:33:54.257Z,2.90
2019-04-04T06:36:20.315Z,3.90
2019-04-04T06:38:46.384Z,2.50
2019-04-04T06:41:12.427Z,2.83
2019-04-04T06:43:41.364Z,2.13
2019-04-04T06:46:06.455Z,2.80
2019-04-04T06:48:33.807Z,3.90
2019-04-04T06:51:00.387Z,2.40
2019-04-04T06:53:26.471Z,2.60
2019-04-04T06:55:52.888Z,2.80
2019-04-04T06:58:18.967Z,2.53
2019-04-04T07:00:48.636Z,2.90
2019-04-04T07:03:13.327Z,2.80
2019-04-04T07:05:40.055Z,2.13
2019-04-04T07:08:06.104Z,2.70
2019-04-04T07:10:32.184Z,2.80
2019-04-04T07:13:09.725Z,1.97
2019-04-04T07:15:26.276Z,2.40
2019-04-04T07:17:52.401Z,2.13
2019-04-04T07:20:18.820Z,2.90
2019-04-04T07:22:45.157Z,3.10
2019-04-04T07:25:11.576Z,2.83
2019-04-04T07:27:38.024Z,2.53
2019-04-04T07:30:06.173Z,3.00
2019-04-04T07:32:32.619Z,2.23
2019-04-04T07:34:58.952Z,2.30
2019-04-04T07:37:25.031Z,2.60
2019-04-04T07:39:51.086Z,2.90
2019-04-04T07:42:17.159Z,3.00
2019-04-04T07:44:43.864Z,3.30
2019-04-04T07:47:09.912Z,3.13
2019-04-04T07:49:36.220Z,2.40
2019-04-04T07:52:03.097Z,2.57
2019-04-04T07:54:31.762Z,2.83
2019-04-04T07:56:58.061Z,2.97
2019-04-04T07:59:24.142Z,2.50
2019-04-04T08:01:51.559Z,3.33
2019-04-04T08:04:18.808Z,2.80
2019-04-04T08:06:44.855Z,2.80
2019-04-04T08:09:11.565Z,2.67
2019-04-04T08:11:37.684Z,4.50
2019-04-04T08:14:03.732Z,2.83
2019-04-04T08:16:30.143Z,3.23
2019-04-04T08:18:56.326Z,3.10
2019-04-04T08:21:22.377Z,3.37
2019-04-04T08:23:48.455Z,3.40
2019-04-04T08:26:14.636Z,3.30
2019-04-04T08:28:40.977Z,3.90
2019-04-04T08:31:09.781Z,3.23
2019-04-04T08:33:35.987Z,3.17
2019-04-04T08:36:06.294Z,2.90
2019-04-04T08:38:30.433Z,3.20
2019-04-04T08:40:56.543Z,2.83
2019-04-04T08:43:22.953Z,3.33
2019-04-04T08:45:49.037Z,3.33
2019-04-04T08:48:15.404Z,3.20
2019-04-04T08:50:41.737Z,2.80
2019-04-04T08:53:08.181Z,3.30
2019-04-04T08:55:34.596Z,3.47
2019-04-04T08:58:00.686Z,3.60
2019-04-04T09:00:27.050Z,3.40
2019-04-04T09:02:53.383Z,3.30
2019-04-04T09:05:19.713Z,3.50
2019-04-04T09:07:45.798Z,3.17
2019-04-04T09:10:11.857Z,3.60
2019-04-04T09:12:37.941Z,3.60
2019-04-04T09:15:06.025Z,3.40
2019-04-04T09:17:32.128Z,3.47
2019-04-04T09:19:58.845Z,3.40
2019-04-04T09:22:24.972Z,3.43
2019-04-04T09:24:51.381Z,3.50
2019-04-04T09:27:17.792Z,3.60
2019-04-04T09:29:43.841Z,3.93
2019-04-04T09:32:10.571Z,2.93
2019-04-04T09:34:36.615Z,3.30
2019-04-04T09:37:02.995Z,3.60
2019-04-04T09:39:29.064Z,3.40
2019-04-04T09:41:55.160Z,3.43
2019-04-04T09:44:21.298Z,3.27
2019-04-04T09:46:47.724Z,3.90
2019-04-04T09:49:14.059Z,3.70
2019-04-04T09:51:40.383Z,3.50
2019-04-04T09:54:06.476Z,3.93
2019-04-04T09:56:32.520Z,3.50
2019-04-04T09:58:58.600Z,3.53
2019-04-04T10:01:25.004Z,3.73
2019-04-04T10:03:51.071Z,3.60
2019-04-04T10:06:17.448Z,3.60
2019-04-04T10:08:43.781Z,3.50
2019-04-04T10:11:10.517Z,3.37
2019-04-04T10:13:36.624Z,3.87
2019-04-04T10:16:02.775Z,4.30
2019-04-04T10:18:29.229Z,3.63
2019-04-04T10:20:55.276Z,3.50
2019-04-04T10:23:21.325Z,3.83
2019-04-04T10:25:47.404Z,3.70
2019-04-04T10:28:13.820Z,4.03
2019-04-04T10:30:40.135Z,3.70
2019-04-04T10:33:06.455Z,3.90
2019-04-04T10:35:32.503Z,3.33
2019-04-04T10:37:58.911Z,3.63
2019-04-04T10:40:25.336Z,3.40
2019-04-04T10:42:51.393Z,4.47
2019-04-04T10:45:17.567Z,4.03
2019-04-04T10:47:43.648Z,3.70
2019-04-04T10:50:10.060Z,4.37
2019-04-04T10:52:37.503Z,4.10
2019-04-04T10:55:05.686Z,4.00
2019-04-04T10:57:32.024Z,4.40
2019-04-04T10:59:58.336Z,4.47
2019-04-04T11:02:24.668Z,3.87
2019-04-04T11:04:51.000Z,4.13
2019-04-04T11:07:17.327Z,4.40
2019-04-04T11:09:43.409Z,4.20
2019-04-04T11:12:09.852Z,3.90
2019-04-04T11:14:35.941Z,5.00
2019-04-04T11:17:02.123Z,4.57
2019-04-04T11:19:31.333Z,4.70
2019-04-04T11:21:56.138Z,4.00
2019-04-04T11:24:22.217Z,4.37
2019-04-04T11:26:48.264Z,4.60
2019-04-04T11:29:14.312Z,4.90
2019-04-04T11:31:40.402Z,4.37
2019-04-04T11:34:06.843Z,3.90
2019-04-04T11:36:32.891Z,3.93
2019-04-04T11:38:59.324Z,4.43
2019-04-04T11:41:26.056Z,3.93
2019-04-04T11:43:52.375Z,4.40
2019-04-04T11:46:18.423Z,4.37
2019-04-04T11:48:44.499Z,4.77
2019-04-04T11:51:10.554Z,4.40
2019-04-04T11:53:36.632Z,3.93
2019-04-04T11:56:03.003Z,5.13
2019-04-04T11:58:29.051Z,4.60
2019-04-04T12:00:59.793Z,5.70
2019-04-04T12:03:25.881Z,5.20
2019-04-04T12:05:52.628Z,4.60
2019-04-04T12:08:19.039Z,5.20
2019-04-04T12:10:45.121Z,4.07
2019-04-04T12:13:11.241Z,5.43
2019-04-04T12:15:37.285Z,4.40
2019-04-04T12:18:03.338Z,4.17
2019-04-04T12:20:29.689Z,4.97
2019-04-04T12:22:56.016Z,5.10
2019-04-04T12:25:22.100Z,5.17
2019-04-04T12:27:48.464Z,4.00
2019-04-04T12:30:15.015Z,4.20
2019-04-04T12:32:41.061Z,4.57
2019-04-04T12:35:07.215Z,4.47
2019-04-04T12:37:33.579Z,4.77
2019-04-04T12:39:59.624Z,4.40
2019-04-04T12:42:25.672Z,4.33
2019-04-04T12:44:51.760Z,4.30
2019-04-04T12:47:18.607Z,4.60
2019-04-04T12:49:44.691Z,3.60
2019-04-04T12:52:11.053Z,4.50
2019-04-04T12:54:37.375Z,3.60
2019-04-04T12:57:03.558Z,4.20
2019-04-04T12:59:29.936Z,3.70
2019-04-04T13:01:56.016Z,4.77
2019-04-04T13:04:31.178Z,3.80
2019-04-04T13:06:50.357Z,4.30
2019-04-04T13:09:16.409Z,4.27
2019-04-04T13:11:42.553Z,4.23
2019-04-04T13:14:08.677Z,3.60
2019-04-04T13:16:34.790Z,4.20
2019-04-04T13:19:00.838Z,3.97
2019-04-04T13:21:27.229Z,3.83
2019-04-04T13:23:53.662Z,3.70
2019-04-04T13:26:19.823Z,3.80
2019-04-04T13:28:46.237Z,4.00
2019-04-04T13:31:12.333Z,4.10
2019-04-04T13:33:38.463Z,3.70
2019-04-04T13:36:04.779Z,3.07
2019-04-04T13:38:30.859Z,3.90
2019-04-04T13:40:56.910Z,4.10
2019-04-04T13:43:23.289Z,3.00
2019-04-04T13:45:49.692Z,3.37
2019-04-04T13:48:16.696Z,3.63
2019-04-04T13:50:42.779Z,3.40
2019-04-04T13:53:09.207Z,2.83
2019-04-04T13:55:35.500Z,3.53
2019-04-04T13:58:03.383Z,2.60
2019-04-04T14:00:29.745Z,2.70
2019-04-04T14:02:55.830Z,3.07
2019-04-04T14:05:22.581Z,2.83
2019-04-04T14:07:48.996Z,2.40
2019-04-04T14:10:17.566Z,3.23
2019-04-04T14:12:43.126Z,2.77
2019-04-04T14:15:11.350Z,2.67
2019-04-04T14:17:37.853Z,2.70
2019-04-04T14:20:07.422Z,2.60
2019-04-04T14:22:33.495Z,2.47
2019-04-04T14:24:59.912Z,2.37
2019-04-04T14:27:27.358Z,2.23
2019-04-04T14:29:55.343Z,4.13
2019-04-04T14:32:22.052Z,2.70
2019-04-04T14:34:48.099Z,2.67
2019-04-04T14:37:14.556Z,3.17
2019-04-04T14:39:40.929Z,2.57
2019-04-04T14:42:07.664Z,3.03
2019-04-04T14:44:35.866Z,2.90
2019-04-04T14:47:01.944Z,2.53
2019-04-04T14:49:27.991Z,2.90
2019-04-04T14:51:54.072Z,2.90
2019-04-04T14:54:20.157Z,2.77
2019-04-04T14:56:46.475Z,2.80
2019-04-04T14:59:12.556Z,2.90
2019-04-04T15:01:38.613Z,3.20
2019-04-04T15:04:05.031Z,2.90
2019-04-04T15:06:31.120Z,2.30
2019-04-04T15:08:57.163Z,2.70
2019-04-04T15:11:24.666Z,2.23
2019-04-04T15:13:52.205Z,2.60
2019-04-04T15:16:18.393Z,2.50
2019-04-04T15:18:45.996Z,2.80
2019-04-04T15:21:14.082Z,2.30
2019-04-04T15:23:40.132Z,2.60
2019-04-04T15:26:09.668Z,2.80
2019-04-04T15:28:35.203Z,2.40
2019-04-04T15:31:02.044Z,2.30
2019-04-04T15:33:28.426Z,2.23
2019-04-04T15:35:54.525Z,2.10
2019-04-04T15:38:20.603Z,1.83
2019-04-04T15:40:46.952Z,2.10
2019-04-04T15:43:13.010Z,2.53
2019-04-04T15:45:39.058Z,2.20
2019-04-04T15:48:05.164Z,2.40
2019-04-04T15:50:31.273Z,2.37
2019-04-04T15:52:57.693Z,2.27
2019-04-04T15:55:24.111Z,3.50
2019-04-04T15:57:50.189Z,2.60
2019-04-04T16:00:17.491Z,2.23
2019-04-04T16:02:43.546Z,2.10
2019-04-04T16:05:10.899Z,2.17
2019-04-04T16:07:37.413Z,2.10
2019-04-04T16:10:05.771Z,2.10
2019-04-04T16:12:32.208Z,2.63
2019-04-04T16:14:58.549Z,2.13
2019-04-04T16:17:25.102Z,5.00
2019-04-04T16:19:51.545Z,3.87
2019-04-04T16:22:17.958Z,3.37
2019-04-04T16:24:44.004Z,2.20
2019-04-04T16:27:10.215Z,2.23
2019-04-04T16:29:36.619Z,4.10
2019-04-04T16:32:03.053Z,2.13
2019-04-04T16:34:29.383Z,2.00
2019-04-04T16:36:55.716Z,2.40
2019-04-04T16:39:21.759Z,3.50
2019-04-04T16:41:47.813Z,1.70
2019-04-04T16:44:13.918Z,2.07
2019-04-04T16:46:39.965Z,1.43
2019-04-04T16:49:06.366Z,5.87
2019-04-04T16:51:32.487Z,2.40
2019-04-04T16:53:58.690Z,3.63
2019-04-04T16:56:24.796Z,2.20
2019-04-04T16:58:51.468Z,3.57
2019-04-04T17:01:17.613Z,8.80
2019-04-04T17:03:43.711Z,2.40
2019-04-04T17:06:09.757Z,2.70
2019-04-04T17:08:35.851Z,6.27
2019-04-04T17:11:02.185Z,4.97
2019-04-04T17:13:28.624Z,3.03
2019-04-04T17:15:55.044Z,3.97
2019-04-04T17:18:21.127Z,3.90
2019-04-04T17:20:47.232Z,5.37
2019-04-04T17:23:13.280Z,3.27
2019-04-04T17:25:39.649Z,4.17
2019-04-04T17:28:06.063Z,6.07
2019-04-04T17:30:32.408Z,9.90
2019-04-04T17:32:58.948Z,8.43
2019-04-04T17:35:25.616Z,6.97
2019-04-04T17:37:52.485Z,12.97
2019-04-04T17:40:19.251Z,6.03
2019-04-04T17:42:45.684Z,4.97
2019-04-04T17:45:15.007Z,4.17
2019-04-04T17:47:41.935Z,6.27
2019-04-04T17:50:12.116Z,6.23
2019-04-04T17:52:39.120Z,5.10
2019-04-04T17:55:06.631Z,5.33
2019-04-04T17:57:32.782Z,7.40
2019-04-04T17:59:59.228Z,5.33
2019-04-04T18:02:25.741Z,5.00
2019-04-04T18:04:52.277Z,8.43
2019-04-04T18:07:18.333Z,3.57
2019-04-04T18:09:45.672Z,3.63
2019-04-04T18:12:12.397Z,2.97
2019-04-04T18:14:38.444Z,3.50
2019-04-04T18:17:04.599Z,4.17
2019-04-04T18:19:30.988Z,7.13
2019-04-04T18:21:57.463Z,2.90
2019-04-04T18:24:23.876Z,2.67
2019-04-04T18:26:49.929Z,4.70
2019-04-04T18:29:16.032Z,2.50
2019-04-04T18:31:42.080Z,4.13
2019-04-04T18:34:08.896Z,4.30
2019-04-04T18:36:36.173Z,6.60
2019-04-04T18:39:04.803Z,6.77
2019-04-04T18:41:30.854Z,6.70
2019-04-04T18:43:57.674Z,2.43
2019-04-04T18:46:23.996Z,7.17
2019-04-04T18:48:50.109Z,2.97
2019-04-04T18:51:16.156Z,3.93
2019-04-04T18:53:42.203Z,4.27
2019-04-04T18:56:08.595Z,3.33
2019-04-04T18:58:34.927Z,2.73
2019-04-04T19:01:01.343Z,4.87
2019-04-04T19:03:29.778Z,4.03
2019-04-04T19:05:55.793Z,2.67
2019-04-04T19:08:21.904Z,2.40
2019-04-04T19:10:48.379Z,3.30
2019-04-04T19:13:14.779Z,2.53
2019-04-04T19:15:41.041Z,2.10
2019-04-04T19:18:07.281Z,2.30
2019-04-04T19:20:33.700Z,2.40
2019-04-04T19:22:59.799Z,2.57
2019-04-04T19:25:25.867Z,3.00
2019-04-04T19:27:52.085Z,2.40
2019-04-04T19:30:19.325Z,2.33
2019-04-04T19:32:45.739Z,2.40
2019-04-04T19:35:12.415Z,2.10
2019-04-04T19:37:38.927Z,2.50
2019-04-04T19:40:06.241Z,2.30
2019-04-04T19:42:32.847Z,2.73
2019-04-04T19:44:59.261Z,2.40
2019-04-04T19:47:25.929Z,1.70
2019-04-04T19:49:52.397Z,2.27
2019-04-04T19:52:18.594Z,1.63
2019-04-04T19:54:45.130Z,2.57
2019-04-04T19:57:11.171Z,1.90
2019-04-04T19:59:37.588Z,1.80
2019-04-04T20:02:04.092Z,2.43
2019-04-04T20:04:30.147Z,4.10
2019-04-04T20:06:57.101Z,4.03
2019-04-04T20:09:23.217Z,3.57
2019-04-04T20:11:49.536Z,2.73
2019-04-04T20:14:15.584Z,1.60
2019-04-04T20:16:41.673Z,2.13
2019-04-04T20:19:08.125Z,1.80
2019-04-04T20:21:34.204Z,1.80
2019-04-04T20:24:00.573Z,2.20
2019-04-04T20:26:26.623Z,2.03
2019-04-04T20:28:52.706Z,2.00
2019-04-04T20:31:18.756Z,1.90
2019-04-04T20:33:45.068Z,1.87
2019-04-04T20:36:11.148Z,2.10
2019-04-04T20:38:37.238Z,2.00
2019-04-04T20:41:04.175Z,1.90
2019-04-04T20:43:42.475Z,2.40
2019-04-04T20:45:58.920Z,1.67
2019-04-04T20:48:25.608Z,1.93
2019-04-04T20:50:52.041Z,2.30
2019-04-04T20:53:18.469Z,1.87
2019-04-04T20:55:44.927Z,2.03
2019-04-04T20:58:11.384Z,2.00
2019-04-04T21:00:37.459Z,1.93
2019-04-04T21:03:03.901Z,2.67
2019-04-04T21:05:29.972Z,2.07
2019-04-04T21:07:56.143Z,2.43
2019-04-04T21:10:22.591Z,1.97
2019-04-04T21:12:48.903Z,2.80
2019-04-04T21:15:14.951Z,3.20
2019-04-04T21:17:41.431Z,1.90
2019-04-04T21:20:07.985Z,1.70
2019-04-04T21:22:34.032Z,2.40
2019-04-04T21:25:00.351Z,1.70
2019-04-04T21:27:26.812Z,1.70
2019-04-04T21:29:52.907Z,2.23
2019-04-04T21:32:19.340Z,3.33
2019-04-04T21:34:45.791Z,1.70
2019-04-04T21:37:12.518Z,2.47
2019-04-04T21:39:38.596Z,2.13
2019-04-04T21:42:04.643Z,2.30
2019-04-04T21:44:30.993Z,2.10
2019-04-04T21:46:57.044Z,2.50
2019-04-04T21:49:23.551Z,1.97
2019-04-04T21:51:49.684Z,2.07
2019-04-04T21:54:15.787Z,2.00
2019-04-04T21:56:41.903Z,2.90
2019-04-04T21:59:08.048Z,4.43
2019-04-04T22:01:34.240Z,2.50
2019-04-04T22:04:00.708Z,5.00
2019-04-04T22:06:26.784Z,2.80
2019-04-04T22:08:52.836Z,6.03
2019-04-04T22:11:19.313Z,3.47
2019-04-04T22:13:45.809Z,3.60
2019-04-04T22:16:12.172Z,3.13
2019-04-04T22:18:38.322Z,3.13
2019-04-04T22:21:05.030Z,2.20
2019-04-04T22:23:31.146Z,3.70
2019-04-04T22:25:57.192Z,2.40
2019-04-04T22:28:23.639Z,2.90
2019-04-04T22:30:49.714Z,2.70
2019-04-04T22:33:15.751Z,2.40
2019-04-04T22:35:41.936Z,2.07
2019-04-04T22:38:08.001Z,2.60
2019-04-04T22:40:34.459Z,2.83
2019-04-04T22:43:00.860Z,2.20
2019-04-04T22:45:27.008Z,2.80
2019-04-04T22:47:53.096Z,2.10
2019-04-04T22:50:19.181Z,2.20
2019-04-04T22:52:45.631Z,3.00
2019-04-04T22:55:12.504Z,2.60
2019-04-04T22:57:38.692Z,2.20
2019-04-04T23:00:07.339Z,2.50
2019-04-04T23:02:33.655Z,2.43
2019-04-04T23:04:59.940Z,2.00
2019-04-04T23:07:26.043Z,1.87
2019-04-04T23:09:52.739Z,3.23
2019-04-04T23:12:18.833Z,2.30
2019-04-04T23:14:48.359Z,3.60
2019-04-04T23:17:13.441Z,2.60
2019-04-04T23:19:39.915Z,2.13
2019-04-04T23:22:06.349Z,3.60
2019-04-04T23:24:32.441Z,2.40
2019-04-04T23:26:59.195Z,2.00
2019-04-04T23:29:25.963Z,2.07
2019-04-04T23:31:52.493Z,1.90
2019-04-04T23:34:18.803Z,2.43
2019-04-04T23:36:44.852Z,1.80
2019-04-04T23:39:10.939Z,2.00
2019-04-04T23:41:37.348Z,1.67
2019-04-04T23:44:03.763Z,1.70
2019-04-04T23:46:29.848Z,2.27
2019-04-04T23:48:56.295Z,2.10
2019-04-04T23:51:22.711Z,1.60
2019-04-04T23:53:48.787Z,1.70
2019-04-04T23:56:14.835Z,2.80
2019-04-04T23:58:41.255Z,1.80
